Time;durP1;ratioP1;P1;durP2;ratioP2;P2;SDS_P1;SDS_P2;PMS_P1;PMS_P2;Temp;Humidity;BMP_temperature;BMP_pressure;BME280_temperature;BME280_humidity;BME280_pressure;Samples;Min_cycle;Max_cycle;Signal;HPM_P1;HPM_P2
2021/10/23 00:02:18;;;;;;;3.70;2.10;;;10.40;68.80;;;;;;5116554;28;20418;-45
2021/10/23 00:04:44;;;;;;;4.70;2.50;;;10.40;68.90;;;;;;5118167;28;20188;-45
2021/10/23 00:07:10;;;;;;;4.23;2.07;;;10.40;69.00;;;;;;5117672;28;20211;-45
2021/10/23 00:09:35;;;;;;;2.93;2.07;;;10.40;69.20;;;;;;5117989;28;20207;-45
2021/10/23 00:12:01;;;;;;;3.57;2.17;;;10.40;69.30;;;;;;5117819;28;20188;-45
2021/10/23 00:14:27;;;;;;;4.97;2.57;;;10.40;69.30;;;;;;5117732;28;20289;-45
2021/10/23 00:16:53;;;;;;;2.90;2.07;;;10.40;69.60;;;;;;5116088;28;20184;-46
2021/10/23 00:19:23;;;;;;;4.67;2.50;;;10.30;69.50;;;;;;5116468;28;20230;-46
2021/10/23 00:21:48;;;;;;;2.80;2.30;;;10.30;69.50;;;;;;5099434;28;20432;-46
2021/10/23 00:24:15;;;;;;;2.63;2.00;;;10.40;70.50;;;;;;5116561;28;20783;-46
2021/10/23 00:26:41;;;;;;;3.10;2.27;;;10.30;69.90;;;;;;5117415;28;20199;-46
2021/10/23 00:29:06;;;;;;;5.27;2.53;;;10.30;69.90;;;;;;5117741;28;20826;-46
2021/10/23 00:31:32;;;;;;;5.10;2.50;;;10.30;69.90;;;;;;5117378;28;20200;-46
2021/10/23 00:33:58;;;;;;;3.83;2.10;;;10.40;70.10;;;;;;5117510;28;20251;-46
2021/10/23 00:36:25;;;;;;;4.30;2.70;;;10.30;70.10;;;;;;5117889;28;20251;-46
2021/10/23 00:38:51;;;;;;;3.30;1.57;;;10.30;70.20;;;;;;5117681;28;20442;-46
2021/10/23 00:41:17;;;;;;;3.77;2.23;;;10.40;70.30;;;;;;5117870;28;20525;-46
2021/10/23 00:43:45;;;;;;;3.30;2.30;;;10.30;70.40;;;;;;5117726;28;20194;-46
2021/10/23 00:46:12;;;;;;;4.23;2.20;;;10.40;70.60;;;;;;5117351;28;20437;-46
2021/10/23 00:48:38;;;;;;;4.27;2.17;;;10.40;71.10;;;;;;5117409;28;20491;-46
2021/10/23 00:51:03;;;;;;;5.10;2.20;;;10.40;71.30;;;;;;5117503;28;20430;-46
2021/10/23 00:53:29;;;;;;;5.60;2.60;;;10.30;71.60;;;;;;5117608;28;20285;-46
2021/10/23 00:55:55;;;;;;;4.93;2.30;;;10.30;71.80;;;;;;5116607;28;20191;-45
2021/10/23 00:58:21;;;;;;;3.93;2.47;;;10.30;71.90;;;;;;5117407;28;20179;-46
2021/10/23 01:00:47;;;;;;;3.97;2.10;;;10.30;72.00;;;;;;5110542;28;20457;-46
2021/10/23 01:03:13;;;;;;;4.40;2.07;;;10.30;72.20;;;;;;5105205;28;20197;-45
2021/10/23 01:05:39;;;;;;;4.10;2.40;;;10.30;72.20;;;;;;5079218;28;20461;-46
2021/10/23 01:08:04;;;;;;;4.73;2.23;;;10.30;72.60;;;;;;5096686;28;20407;-46
2021/10/23 01:10:30;;;;;;;3.30;2.30;;;10.30;72.80;;;;;;5096413;28;21125;-46
2021/10/23 01:12:58;;;;;;;3.60;2.03;;;10.30;73.10;;;;;;5079057;28;20223;-45
2021/10/23 01:15:30;;;;;;;4.97;2.47;;;10.30;73.20;;;;;;5096839;28;20197;-46
2021/10/23 01:17:59;;;;;;;4.43;2.10;;;10.30;73.70;;;;;;5097176;28;20488;-46
2021/10/23 01:20:26;;;;;;;3.27;2.07;;;10.30;74.00;;;;;;5096629;28;20930;-46
2021/10/23 01:22:53;;;;;;;5.00;1.80;;;10.30;74.10;;;;;;5096303;28;20415;-45
2021/10/23 01:25:20;;;;;;;6.20;2.30;;;10.30;74.20;;;;;;5096641;28;20437;-45
2021/10/23 01:27:46;;;;;;;5.20;2.40;;;10.30;74.00;;;;;;5078964;28;20466;-46
2021/10/23 01:30:13;;;;;;;3.17;1.60;;;10.30;74.10;;;;;;5078818;28;20443;-46
2021/10/23 01:32:39;;;;;;;3.27;2.00;;;10.30;74.20;;;;;;5096293;28;20576;-46
2021/10/23 01:35:07;;;;;;;5.80;2.73;;;10.30;74.10;;;;;;5095993;28;20430;-46
2021/10/23 01:37:37;;;;;;;4.47;2.37;;;10.30;74.10;;;;;;5096393;28;20613;-46
2021/10/23 01:40:08;;;;;;;4.60;2.20;;;10.30;74.20;;;;;;5096206;28;20508;-46
2021/10/23 01:42:34;;;;;;;4.27;2.90;;;10.30;74.50;;;;;;5096052;28;20809;-46
2021/10/23 01:45:00;;;;;;;3.53;2.30;;;10.30;74.80;;;;;;5096168;28;20884;-46
2021/10/23 01:47:25;;;;;;;5.27;2.30;;;10.30;74.80;;;;;;5096415;28;20415;-47
2021/10/23 01:49:51;;;;;;;8.23;2.33;;;10.30;74.80;;;;;;5094921;28;20185;-46
2021/10/23 01:52:17;;;;;;;3.17;2.10;;;10.30;74.80;;;;;;5095451;28;20177;-46
2021/10/23 01:54:43;;;;;;;9.43;2.33;;;10.30;75.00;;;;;;5093722;28;20220;-46
2021/10/23 01:57:09;;;;;;;4.40;2.77;;;10.30;75.40;;;;;;5095030;28;20211;-47
2021/10/23 01:59:35;;;;;;;5.03;2.23;;;10.30;75.50;;;;;;5094839;28;20415;-46
2021/10/23 02:02:02;;;;;;;3.90;2.00;;;10.30;75.50;;;;;;5095012;28;20185;-46
2021/10/23 02:04:28;;;;;;;4.63;2.80;;;10.30;75.40;;;;;;5095193;28;20502;-45
2021/10/23 02:06:54;;;;;;;4.60;2.30;;;10.30;75.60;;;;;;5096744;28;20435;-46
2021/10/23 02:09:19;;;;;;;3.70;1.87;;;10.30;75.70;;;;;;5098940;28;20460;-46
2021/10/23 02:11:45;;;;;;;3.60;2.33;;;10.30;75.90;;;;;;5093432;28;20258;-46
2021/10/23 02:14:11;;;;;;;3.70;2.00;;;10.30;76.00;;;;;;5114363;28;20208;-46
2021/10/23 02:16:37;;;;;;;5.07;2.57;;;10.30;76.00;;;;;;5111245;28;20203;-46
2021/10/23 02:19:03;;;;;;;3.87;2.23;;;10.30;75.90;;;;;;5113792;28;20500;-46
2021/10/23 02:21:29;;;;;;;6.40;2.30;;;10.30;76.00;;;;;;5112603;28;20430;-46
2021/10/23 02:23:55;;;;;;;2.33;2.00;;;10.30;76.20;;;;;;5111953;28;20424;-46
2021/10/23 02:26:20;;;;;;;4.07;2.60;;;10.30;76.40;;;;;;5110290;28;20431;-46
2021/10/23 02:28:46;;;;;;;5.50;2.60;;;10.30;76.50;;;;;;5109773;28;20240;-46
2021/10/23 02:31:12;;;;;;;3.73;2.00;;;10.30;76.70;;;;;;5108918;28;20699;-46
2021/10/23 02:33:37;;;;;;;4.07;2.03;;;10.30;76.90;;;;;;5110542;28;20310;-46
2021/10/23 02:36:03;;;;;;;9.63;2.40;;;10.30;76.80;;;;;;5110178;28;20193;-46
2021/10/23 02:38:29;;;;;;;4.43;2.27;;;10.30;76.80;;;;;;5109870;28;20177;-46
2021/10/23 02:40:56;;;;;;;4.70;2.33;;;10.20;76.70;;;;;;5108811;28;20441;-47
2021/10/23 02:43:23;;;;;;;3.23;1.90;;;10.20;76.70;;;;;;5111309;28;20422;-46
2021/10/23 02:45:49;;;;;;;5.10;2.70;;;10.20;76.70;;;;;;5109806;28;20431;-46
2021/10/23 02:48:14;;;;;;;8.27;2.33;;;10.20;77.00;;;;;;5117976;28;20441;-46
2021/10/23 02:50:40;;;;;;;4.63;2.30;;;10.20;77.60;;;;;;5120069;28;20268;-46
2021/10/23 02:53:06;;;;;;;3.97;2.10;;;10.20;77.80;;;;;;5119867;28;20461;-46
2021/10/23 02:55:32;;;;;;;3.50;2.27;;;10.20;78.00;;;;;;5119071;28;20547;-46
2021/10/23 02:57:57;;;;;;;4.87;2.00;;;10.20;78.10;;;;;;5120137;28;20271;-46
2021/10/23 03:00:23;;;;;;;3.70;1.93;;;10.20;78.50;;;;;;5119414;28;20195;-45
2021/10/23 03:02:50;;;;;;;7.30;2.70;;;10.20;78.80;;;;;;5118644;28;20196;-46
2021/10/23 03:05:16;;;;;;;3.30;1.87;;;10.20;79.10;;;;;;5118503;28;20541;-46
2021/10/23 03:07:42;;;;;;;8.00;2.47;;;10.20;79.40;;;;;;5119066;28;20414;-46
2021/10/23 03:10:08;;;;;;;7.40;2.10;;;10.20;79.60;;;;;;5118163;28;20433;-46
2021/10/23 03:12:34;;;;;;;6.13;2.80;;;10.20;79.80;;;;;;5118136;28;20190;-45
2021/10/23 03:15:00;;;;;;;6.43;2.40;;;10.20;79.80;;;;;;5118719;28;20422;-46
2021/10/23 03:17:26;;;;;;;6.10;2.40;;;10.20;80.10;;;;;;5118282;28;20569;-46
2021/10/23 03:19:51;;;;;;;6.00;2.20;;;10.20;80.30;;;;;;5119161;28;20215;-46
2021/10/23 03:22:17;;;;;;;7.20;2.40;;;10.20;80.20;;;;;;5099629;28;20183;-46
2021/10/23 03:24:43;;;;;;;2.60;1.67;;;10.20;80.40;;;;;;5118840;28;20180;-45
2021/10/23 03:27:08;;;;;;;3.53;1.93;;;10.20;80.60;;;;;;5117964;28;20236;-46
2021/10/23 03:29:34;;;;;;;4.13;1.73;;;10.20;80.70;;;;;;5116676;28;20219;-46
2021/10/23 03:32:00;;;;;;;3.10;1.90;;;10.20;80.60;;;;;;5114798;28;20847;-46
2021/10/23 03:34:25;;;;;;;4.13;2.30;;;10.10;80.60;;;;;;5115233;28;20303;-46
2021/10/23 03:36:51;;;;;;;4.50;2.03;;;10.20;81.00;;;;;;5114073;28;20268;-46
2021/10/23 03:39:17;;;;;;;4.30;2.20;;;10.20;81.20;;;;;;5115344;28;20187;-46
2021/10/23 03:41:42;;;;;;;3.90;2.23;;;10.20;81.30;;;;;;5115591;28;20243;-45
2021/10/23 03:44:08;;;;;;;4.00;2.30;;;10.20;81.20;;;;;;5116349;28;20183;-46
2021/10/23 03:46:34;;;;;;;7.50;2.40;;;10.20;81.30;;;;;;5116836;28;20524;-44
2021/10/23 03:48:59;;;;;;;4.87;2.20;;;10.20;81.70;;;;;;5116641;28;20215;-44
2021/10/23 03:51:25;;;;;;;4.63;2.53;;;10.10;81.80;;;;;;5118067;28;20248;-44
2021/10/23 03:53:51;;;;;;;2.93;1.80;;;10.10;81.80;;;;;;5118254;28;20299;-46
2021/10/23 03:56:16;;;;;;;4.57;2.23;;;10.10;81.70;;;;;;5118637;28;20661;-44
2021/10/23 03:58:42;;;;;;;5.23;2.30;;;10.10;81.70;;;;;;5118984;28;20267;-45
2021/10/23 04:01:08;;;;;;;2.90;1.67;;;10.10;81.80;;;;;;5117883;28;20176;-45
2021/10/23 04:03:33;;;;;;;3.53;1.97;;;10.10;81.80;;;;;;5117432;28;20334;-48
2021/10/23 04:05:59;;;;;;;5.40;2.33;;;10.10;81.70;;;;;;5117046;28;20184;-48
2021/10/23 04:08:25;;;;;;;5.03;2.20;;;10.10;81.70;;;;;;5118223;28;20426;-48
2021/10/23 04:10:50;;;;;;;2.90;1.80;;;10.10;81.90;;;;;;5117695;28;20652;-48
2021/10/23 04:13:16;;;;;;;3.40;2.40;;;10.20;81.90;;;;;;5117602;28;20361;-48
2021/10/23 04:15:42;;;;;;;7.63;2.30;;;10.20;81.90;;;;;;5117269;28;20181;-48
2021/10/23 04:18:07;;;;;;;2.53;1.47;;;10.20;81.90;;;;;;5098999;28;20609;-48
2021/10/23 04:20:33;;;;;;;4.20;1.97;;;10.20;81.80;;;;;;5117441;28;20484;-48
2021/10/23 04:22:59;;;;;;;5.00;2.27;;;10.30;82.00;;;;;;5099284;28;20220;-48
2021/10/23 04:25:25;;;;;;;2.93;1.73;;;10.20;82.20;;;;;;5117868;28;20188;-48
2021/10/23 04:27:50;;;;;;;3.90;2.07;;;10.30;82.40;;;;;;5117397;28;20239;-48
2021/10/23 04:30:16;;;;;;;4.50;2.50;;;10.30;82.60;;;;;;5117609;28;20188;-48
2021/10/23 04:32:41;;;;;;;3.33;2.10;;;10.30;82.70;;;;;;5113151;28;20267;-48
2021/10/23 04:35:07;;;;;;;4.07;2.10;;;10.30;82.60;;;;;;5110246;28;20196;-48
2021/10/23 04:37:33;;;;;;;4.67;2.20;;;10.30;82.50;;;;;;5086212;28;20220;-48
2021/10/23 04:39:59;;;;;;;5.20;3.00;;;10.30;82.40;;;;;;5106490;28;20896;-48
2021/10/23 04:42:26;;;;;;;4.40;2.50;;;10.30;82.30;;;;;;5097110;28;20515;-48
2021/10/23 04:44:51;;;;;;;3.47;1.80;;;10.30;82.30;;;;;;5112839;28;20205;-48
2021/10/23 04:47:17;;;;;;;2.43;2.00;;;10.30;82.40;;;;;;5116812;28;20832;-48
2021/10/23 04:49:43;;;;;;;7.10;2.80;;;10.30;82.40;;;;;;5117406;28;20192;-48
2021/10/23 04:52:09;;;;;;;3.00;1.60;;;10.30;82.50;;;;;;5117545;28;20253;-48
2021/10/23 04:54:34;;;;;;;3.83;1.90;;;10.20;82.50;;;;;;5117203;28;20473;-48
2021/10/23 04:57:00;;;;;;;4.70;2.50;;;10.20;82.60;;;;;;5116856;28;20188;-48
2021/10/23 04:59:26;;;;;;;3.03;2.20;;;10.30;83.00;;;;;;5117298;28;20191;-48
2021/10/23 05:01:52;;;;;;;3.17;1.93;;;10.30;83.00;;;;;;5108558;28;20192;-42
2021/10/23 05:04:17;;;;;;;4.30;2.03;;;10.20;83.00;;;;;;5102700;28;20353;-42
2021/10/23 05:06:43;;;;;;;3.00;2.17;;;10.20;83.10;;;;;;5097107;28;20879;-44
2021/10/23 05:09:09;;;;;;;3.90;2.27;;;10.20;83.30;;;;;;5097801;28;20260;-43
2021/10/23 05:11:35;;;;;;;2.27;1.90;;;10.20;83.30;;;;;;5097542;28;20490;-42
2021/10/23 05:14:00;;;;;;;2.60;1.90;;;10.20;83.40;;;;;;5079980;28;20220;-43
2021/10/23 05:16:26;;;;;;;3.43;2.13;;;10.10;83.40;;;;;;5097689;28;20259;-44
2021/10/23 05:18:52;;;;;;;2.90;2.30;;;10.10;83.40;;;;;;5097087;28;20218;-42
2021/10/23 05:21:18;;;;;;;5.10;1.80;;;10.10;83.60;;;;;;5095372;28;20295;-45
2021/10/23 05:23:45;;;;;;;3.97;2.23;;;10.10;83.70;;;;;;5095974;28;20778;-43
2021/10/23 05:26:12;;;;;;;3.60;2.43;;;10.10;83.80;;;;;;5095353;28;20905;-44
2021/10/23 05:28:37;;;;;;;4.57;2.70;;;10.10;84.20;;;;;;5106084;28;20493;-42
2021/10/23 05:31:04;;;;;;;4.30;2.50;;;10.00;83.80;;;;;;5115505;28;20418;-42
2021/10/23 05:33:30;;;;;;;4.40;2.43;;;10.00;84.00;;;;;;5115695;28;20582;-42
2021/10/23 05:35:56;;;;;;;4.13;2.40;;;10.00;84.20;;;;;;5116562;28;20403;-42
2021/10/23 05:38:21;;;;;;;4.37;2.27;;;10.00;84.50;;;;;;5096525;28;20539;-44
2021/10/23 05:40:47;;;;;;;4.57;2.20;;;10.00;84.80;;;;;;5078820;28;20179;-42
2021/10/23 05:43:13;;;;;;;3.70;2.60;;;10.00;85.10;;;;;;5095658;28;20197;-42
2021/10/23 05:45:38;;;;;;;4.57;2.40;;;10.00;85.30;;;;;;5081117;28;20575;-43
2021/10/23 05:48:06;;;;;;;4.83;2.50;;;10.00;85.50;;;;;;5100055;28;20579;-43
2021/10/23 05:50:32;;;;;;;4.87;2.23;;;9.90;86.90;;;;;;5116103;28;20242;-42
2021/10/23 05:52:57;;;;;;;4.00;2.80;;;9.90;87.00;;;;;;5121674;28;20907;-41
2021/10/23 05:55:23;;;;;;;7.07;2.70;;;9.90;87.00;;;;;;5120995;28;20215;-41
2021/10/23 05:57:49;;;;;;;4.50;2.30;;;9.90;87.00;;;;;;5100657;28;20258;-46
2021/10/23 06:00:15;;;;;;;3.93;2.63;;;9.90;87.10;;;;;;5100757;28;20224;-42
2021/10/23 06:02:41;;;;;;;6.10;2.57;;;9.90;87.20;;;;;;5099444;28;20204;-43
2021/10/23 06:05:07;;;;;;;4.40;2.63;;;9.90;87.40;;;;;;5099496;28;20414;-41
2021/10/23 06:07:39;;;;;;;6.80;2.80;;;9.90;87.50;;;;;;5082109;28;20724;-44
2021/10/23 06:10:08;;;;;;;5.70;2.93;;;9.90;87.50;;;;;;5081092;28;20433;-43
2021/10/23 06:12:34;;;;;;;4.13;3.67;;;9.90;87.60;;;;;;5097196;28;20910;-43
2021/10/23 06:14:59;;;;;;;3.97;2.83;;;9.90;87.60;;;;;;5107418;28;20506;-42
2021/10/23 06:17:25;;;;;;;3.80;2.57;;;9.90;87.50;;;;;;5097939;28;20468;-44
2021/10/23 06:19:51;;;;;;;5.23;2.93;;;9.90;87.50;;;;;;5098269;28;20619;-42
2021/10/23 06:22:17;;;;;;;4.10;2.77;;;9.90;87.40;;;;;;5097545;28;20310;-44
2021/10/23 06:24:43;;;;;;;4.07;2.13;;;9.90;87.40;;;;;;5098391;28;20418;-42
2021/10/23 06:27:09;;;;;;;4.77;3.33;;;9.90;87.40;;;;;;5098610;28;20485;-43
2021/10/23 06:29:35;;;;;;;4.97;2.30;;;10.00;86.00;;;;;;5100423;28;20847;-43
2021/10/23 06:32:01;;;;;;;4.60;2.13;;;10.00;85.90;;;;;;5099970;28;20430;-42
2021/10/23 06:34:27;;;;;;;5.00;2.60;;;10.00;85.60;;;;;;5081540;28;20311;-43
2021/10/23 06:36:54;;;;;;;4.20;2.20;;;10.10;85.40;;;;;;5098237;28;20424;-44
2021/10/23 06:39:19;;;;;;;3.40;2.60;;;10.20;85.20;;;;;;5097569;28;20417;-42
2021/10/23 06:41:45;;;;;;;3.30;2.20;;;10.20;85.00;;;;;;5097822;28;20782;-43
2021/10/23 06:44:11;;;;;;;5.67;2.57;;;10.30;84.80;;;;;;5079876;28;20196;-43
2021/10/23 06:46:38;;;;;;;4.60;2.90;;;10.30;84.40;;;;;;5096708;28;20177;-44
2021/10/23 06:49:04;;;;;;;4.13;2.90;;;10.30;84.30;;;;;;5097923;28;20488;-42
2021/10/23 06:51:30;;;;;;;7.00;2.60;;;10.30;84.10;;;;;;5098554;28;20411;-42
2021/10/23 06:53:58;;;;;;;5.73;2.60;;;10.30;84.10;;;;;;5080572;28;20467;-41
2021/10/23 06:56:25;;;;;;;3.70;2.47;;;10.40;84.20;;;;;;5097552;28;20188;-43
2021/10/23 06:58:51;;;;;;;10.83;2.77;;;10.40;84.00;;;;;;5097752;28;20540;-42
2021/10/23 07:01:19;;;;;;;5.27;2.10;;;10.40;83.90;;;;;;5096530;28;20984;-43
2021/10/23 07:03:46;;;;;;;3.30;2.23;;;10.30;83.80;;;;;;5097629;28;20921;-46
2021/10/23 07:06:17;;;;;;;6.90;2.60;;;10.30;83.80;;;;;;5063928;28;20423;-42
2021/10/23 07:09:04;;;;;;;7.20;2.77;;;10.30;83.70;;;;;;5054517;28;20429;-44
2021/10/23 07:11:30;;;;;;;3.90;2.80;;;10.40;83.70;;;;;;5054259;28;20442;-43
2021/10/23 07:13:56;;;;;;;5.00;2.80;;;10.40;83.70;;;;;;5054210;28;21004;-42
2021/10/23 07:16:22;;;;;;;3.40;2.60;;;10.50;83.70;;;;;;5055367;28;20217;-45
2021/10/23 07:18:48;;;;;;;3.77;2.40;;;10.50;83.30;;;;;;5055024;28;20220;-42
2021/10/23 07:21:14;;;;;;;5.20;2.37;;;10.60;83.20;;;;;;5054764;28;20843;-42
2021/10/23 07:23:41;;;;;;;3.97;2.50;;;10.60;83.00;;;;;;5054045;28;20650;-43
2021/10/23 07:26:07;;;;;;;4.63;2.53;;;10.70;82.80;;;;;;5053955;28;20417;-45
2021/10/23 07:28:32;;;;;;;4.43;2.80;;;10.80;82.60;;;;;;5054034;28;20490;-43
2021/10/23 07:30:59;;;;;;;4.20;2.33;;;10.80;82.20;;;;;;5054946;28;20421;-44
2021/10/23 07:33:25;;;;;;;4.13;2.37;;;10.90;82.00;;;;;;5054371;28;20623;-43
2021/10/23 07:35:51;;;;;;;6.10;2.93;;;11.00;81.60;;;;;;5053537;28;20435;-41
2021/10/23 07:38:17;;;;;;;4.07;2.77;;;11.20;81.40;;;;;;5054300;28;20464;-42
2021/10/23 07:40:44;;;;;;;3.70;2.53;;;11.30;80.90;;;;;;5036573;28;20190;-43
2021/10/23 07:43:12;;;;;;;12.20;3.17;;;11.40;80.40;;;;;;5053461;28;20791;-42
2021/10/23 07:45:38;;;;;;;5.30;2.43;;;11.50;80.00;;;;;;5046942;28;20440;-43
2021/10/23 07:48:04;;;;;;;3.43;2.67;;;11.70;79.60;;;;;;5041100;28;20445;-44
2021/10/23 07:50:30;;;;;;;2.80;2.00;;;11.80;79.10;;;;;;5033740;28;20214;-42
2021/10/23 07:53:01;;;;;;;5.67;2.40;;;12.10;78.90;;;;;;5034120;28;20466;-44
2021/10/23 07:55:26;;;;;;;4.47;2.00;;;12.30;78.40;;;;;;5033713;28;20221;-43
2021/10/23 07:57:52;;;;;;;6.43;3.13;;;12.60;77.80;;;;;;5035010;28;20573;-44
2021/10/23 08:00:18;;;;;;;5.10;2.40;;;13.00;77.60;;;;;;5035824;28;20228;-44
2021/10/23 08:02:59;;;;;;;3.40;2.67;;;13.60;77.30;;;;;;5035970;28;20195;-42
2021/10/23 08:05:26;;;;;;;2.30;1.90;;;14.10;75.90;;;;;;5035474;28;20183;-41
2021/10/23 08:07:52;;;;;;;4.40;2.57;;;14.50;73.50;;;;;;5034180;28;20606;-42
2021/10/23 08:10:19;;;;;;;4.20;2.10;;;14.80;72.00;;;;;;5034157;28;20420;-45
2021/10/23 08:12:45;;;;;;;3.43;2.47;;;15.00;70.60;;;;;;5033968;28;20440;-42
2021/10/23 08:15:12;;;;;;;3.77;2.57;;;15.20;69.40;;;;;;5039663;28;20425;-45
2021/10/23 08:17:37;;;;;;;3.90;2.17;;;15.40;68.50;;;;;;5054892;28;20436;-44
2021/10/23 08:20:09;;;;;;;4.67;2.60;;;15.60;67.70;;;;;;5054733;28;20781;-43
2021/10/23 08:22:36;;;;;;;3.90;2.10;;;15.80;67.00;;;;;;5053544;28;20432;-43
2021/10/23 08:25:06;;;;;;;4.30;2.30;;;16.10;66.10;;;;;;5051181;28;20424;-44
2021/10/23 08:27:39;;;;;;;5.50;2.60;;;16.30;65.20;;;;;;5052520;28;20546;-43
2021/10/23 08:30:07;;;;;;;4.50;2.53;;;16.60;64.40;;;;;;5053409;28;20708;-47
2021/10/23 08:32:33;;;;;;;4.73;2.67;;;16.80;63.50;;;;;;5052930;28;20921;-44
2021/10/23 08:34:59;;;;;;;4.57;2.87;;;16.80;62.30;;;;;;5052314;28;20536;-43
2021/10/23 08:37:25;;;;;;;4.10;2.40;;;17.00;61.40;;;;;;5063448;28;20435;-42
2021/10/23 08:39:50;;;;;;;4.10;2.13;;;17.20;60.70;;;;;;5095916;28;20411;-44
2021/10/23 08:42:17;;;;;;;4.97;2.50;;;17.40;60.40;;;;;;5094167;28;20217;-47
2021/10/23 08:44:44;;;;;;;3.00;2.40;;;17.90;59.80;;;;;;5093541;28;20197;-45
2021/10/23 08:47:11;;;;;;;3.47;1.97;;;18.20;59.20;;;;;;5092758;28;20446;-43
2021/10/23 08:49:38;;;;;;;4.03;2.20;;;18.70;58.40;;;;;;5076503;28;20522;-45
2021/10/23 08:52:04;;;;;;;4.40;2.20;;;19.30;57.40;;;;;;5093669;28;20447;-42
2021/10/23 08:54:32;;;;;;;5.40;2.80;;;19.90;56.30;;;;;;5095778;28;20466;-42
2021/10/23 08:57:02;;;;;;;5.70;2.80;;;20.50;55.30;;;;;;5077862;28;20196;-42
2021/10/23 08:59:29;;;;;;;4.50;2.33;;;21.20;54.10;;;;;;5096039;28;20407;-44
2021/10/23 09:01:58;;;;;;;4.20;2.07;;;21.90;52.80;;;;;;5094864;28;20470;-41
2021/10/23 09:04:30;;;;;;;6.70;2.63;;;22.50;50.60;;;;;;5093707;28;20410;-44
2021/10/23 09:07:10;;;;;;;3.30;1.73;;;23.10;49.00;;;;;;5093744;28;20432;-43
2021/10/23 09:09:58;;;;;;;3.23;2.67;;;23.80;47.90;;;;;;5076230;28;20480;-43
2021/10/23 09:12:28;;;;;;;6.47;2.40;;;24.60;46.70;;;;;;5093554;28;20438;-44
2021/10/23 09:15:09;;;;;;;2.50;2.13;;;25.30;45.50;;;;;;5095303;28;20464;-43
2021/10/23 09:17:35;;;;;;;3.37;1.87;;;26.00;44.20;;;;;;5096211;28;20432;-42
2021/10/23 09:20:25;;;;;;;3.60;2.00;;;26.70;42.90;;;;;;5073669;28;20440;-43
2021/10/23 09:22:54;;;;;;;3.50;2.00;;;27.40;41.40;;;;;;5065416;28;20441;-43
2021/10/23 09:25:35;;;;;;;3.67;2.10;;;27.90;40.40;;;;;;5075739;28;20720;-43
2021/10/23 09:28:14;;;;;;;4.93;2.30;;;28.40;39.50;;;;;;5068539;28;20572;-44
2021/10/23 09:30:45;;;;;;;3.33;1.83;;;28.90;38.60;;;;;;5102127;28;20428;-43
2021/10/23 09:33:19;;;;;;;3.73;2.13;;;29.50;37.70;;;;;;5115769;28;20629;-43
2021/10/23 09:35:49;;;;;;;2.90;2.00;;;29.90;36.80;;;;;;5116502;28;20543;-45
2021/10/23 09:38:18;;;;;;;3.93;2.50;;;30.30;36.10;;;;;;5117109;28;20437;-42
2021/10/23 09:40:45;;;;;;;3.60;2.23;;;30.80;35.60;;;;;;5097681;28;20519;-43
2021/10/23 09:43:11;;;;;;;4.87;2.13;;;31.20;35.70;;;;;;5097913;28;20434;-43
2021/10/23 09:46:12;;;;;;;2.00;1.10;;;31.50;36.60;;;;;;5114906;28;20565;-42
2021/10/23 09:48:48;;;;;;;3.00;1.50;;;31.80;37.20;;;;;;5080132;28;20199;-43
2021/10/23 09:51:38;;;;;;;3.03;1.50;;;31.80;36.70;;;;;;5115806;28;20422;-41
2021/10/23 09:54:05;;;;;;;3.00;1.40;;;32.00;36.80;;;;;;5081327;28;21064;-43
2021/10/23 09:56:35;;;;;;;3.10;1.50;;;32.30;36.40;;;;;;5115448;28;20413;-42
2021/10/23 09:59:07;;;;;;;2.93;1.53;;;32.50;36.60;;;;;;5115795;28;20423;-42
2021/10/23 10:01:34;;;;;;;2.53;1.80;;;32.70;36.20;;;;;;5115396;28;20421;-44
2021/10/23 10:04:03;;;;;;;2.83;1.47;;;33.00;35.50;;;;;;5115848;28;20435;-44
2021/10/23 10:06:33;;;;;;;3.27;1.70;;;32.90;35.10;;;;;;5115617;28;20420;-43
2021/10/23 10:08:59;;;;;;;2.10;1.20;;;32.40;35.20;;;;;;5115734;28;20462;-42
2021/10/23 10:11:25;;;;;;;6.07;1.63;;;31.50;35.80;;;;;;5115604;28;20832;-42
2021/10/23 10:13:52;;;;;;;3.77;1.40;;;30.60;34.90;;;;;;5098665;28;20456;-43
2021/10/23 10:16:17;;;;;;;2.70;1.40;;;29.70;35.10;;;;;;5096173;28;20428;-44
2021/10/23 10:18:48;;;;;;;2.60;1.70;;;29.20;35.70;;;;;;5114421;28;20462;-45
2021/10/23 10:21:18;;;;;;;3.33;1.50;;;29.20;36.20;;;;;;5096724;28;20183;-45
2021/10/23 10:23:44;;;;;;;3.80;1.73;;;29.50;36.40;;;;;;5114157;28;20431;-43
2021/10/23 10:26:34;;;;;;;3.30;1.50;;;30.20;36.60;;;;;;5114342;28;21014;-44
2021/10/23 10:29:40;;;;;;;1.77;1.23;;;31.10;36.00;;;;;;5114953;28;20484;-43
2021/10/23 10:40:18;;;;;;;3.23;1.40;;;29.40;34.90;;;;;;5116485;28;20417;-44
2021/10/23 10:43:07;;;;;;;3.07;1.30;;;28.60;35.20;;;;;;5117136;28;20419;-42
2021/10/23 10:45:36;;;;;;;1.90;1.23;;;27.90;35.70;;;;;;5116716;28;20533;-43
2021/10/23 10:48:23;;;;;;;1.87;1.07;;;27.60;36.10;;;;;;5104015;28;20435;-43
2021/10/23 10:51:11;;;;;;;3.03;1.57;;;27.20;36.60;;;;;;5114841;28;20426;-44
2021/10/23 10:54:04;;;;;;;2.20;1.70;;;26.80;37.20;;;;;;5098435;28;20480;-44
2021/10/23 10:56:50;;;;;;;3.03;1.37;;;26.20;38.30;;;;;;5116709;28;20867;-43
2021/10/23 10:59:52;;;;;;;2.53;1.23;;;25.70;39.20;;;;;;5100189;28;20434;-44
2021/10/23 11:02:30;;;;;;;3.00;1.20;;;25.30;40.00;;;;;;5087988;28;20424;-42
2021/10/23 11:05:10;;;;;;;3.57;1.50;;;24.90;40.90;;;;;;5110279;28;20432;-42
2021/10/23 11:08:06;;;;;;;2.50;1.27;;;24.60;41.30;;;;;;5107876;28;20455;-42
2021/10/23 11:10:54;;;;;;;4.90;1.77;;;24.40;41.80;;;;;;5099858;28;20423;-42
2021/10/23 11:13:27;;;;;;;2.87;1.73;;;24.20;42.30;;;;;;5113013;28;20467;-43
2021/10/23 11:15:52;;;;;;;2.70;1.43;;;24.20;42.30;;;;;;5117920;28;20409;-44
2021/10/23 11:18:18;;;;;;;2.57;1.40;;;24.20;42.20;;;;;;5116982;28;21026;-41
2021/10/23 11:20:45;;;;;;;3.20;1.20;;;24.30;42.20;;;;;;5115634;28;20456;-41
2021/10/23 11:23:18;;;;;;;3.07;1.50;;;24.90;41.70;;;;;;5105096;28;20488;-42
2021/10/23 11:25:45;;;;;;;2.40;1.80;;;26.00;40.70;;;;;;5094216;28;20425;-43
2021/10/23 11:28:12;;;;;;;2.53;1.83;;;27.00;39.40;;;;;;5108029;28;20465;-42
2021/10/23 11:30:42;;;;;;;2.93;1.47;;;27.90;38.60;;;;;;5108694;28;20448;-42
2021/10/23 11:33:10;;;;;;;3.00;1.87;;;28.50;38.00;;;;;;5101578;28;20513;-41
2021/10/23 11:35:52;;;;;;;3.20;1.50;;;29.00;37.30;;;;;;5096174;28;20486;-43
2021/10/23 11:38:26;;;;;;;5.43;1.73;;;29.50;36.30;;;;;;5097349;28;20457;-42
2021/10/23 11:40:59;;;;;;;4.23;1.87;;;29.50;36.30;;;;;;5098069;28;20416;-46
2021/10/23 11:43:30;;;;;;;3.17;1.80;;;29.50;36.30;;;;;;5081772;28;20537;-45
2021/10/23 11:45:57;;;;;;;2.90;1.53;;;30.30;35.10;;;;;;5079599;28;20611;-42
2021/10/23 11:48:23;;;;;;;3.30;1.90;;;31.00;35.30;;;;;;5078361;28;20413;-43
2021/10/23 11:50:54;;;;;;;1.97;1.33;;;31.70;34.50;;;;;;5096007;28;20620;-44
2021/10/23 11:53:28;;;;;;;4.97;1.30;;;32.70;34.30;;;;;;5077992;28;20225;-42
2021/10/23 11:56:12;;;;;;;6.03;2.10;;;33.60;33.50;;;;;;5095613;28;20699;-44
2021/10/23 11:58:41;;;;;;;2.70;1.43;;;34.50;31.80;;;;;;5074659;28;20871;-44
2021/10/23 12:01:09;;;;;;;3.77;1.77;;;35.30;31.00;;;;;;5112124;28;20742;-44
2021/10/23 12:03:45;;;;;;;6.50;1.60;;;36.00;30.70;;;;;;5116139;28;20469;-43
2021/10/23 12:06:20;;;;;;;2.90;1.70;;;36.00;30.90;;;;;;5115704;28;20903;-43
2021/10/23 12:08:47;;;;;;;3.00;1.20;;;35.20;31.30;;;;;;5116415;28;20789;-43
2021/10/23 12:11:20;;;;;;;3.33;1.30;;;34.00;31.60;;;;;;5116315;28;20485;-43
2021/10/23 12:13:47;;;;;;;3.70;2.07;;;32.70;32.10;;;;;;5117554;28;20475;-42
2021/10/23 12:16:14;;;;;;;2.13;1.60;;;31.50;32.50;;;;;;5117542;28;20726;-45
2021/10/23 12:18:41;;;;;;;2.10;1.47;;;30.30;32.80;;;;;;5117487;28;21077;-43
2021/10/23 12:21:19;;;;;;;2.30;1.43;;;29.40;33.50;;;;;;5116981;28;20395;-41
2021/10/23 12:23:51;;;;;;;2.40;1.27;;;28.50;34.30;;;;;;5116985;28;20426;-45
2021/10/23 12:26:27;;;;;;;2.40;1.60;;;27.70;35.10;;;;;;5116599;28;21014;-44
2021/10/23 12:29:08;;;;;;;2.20;1.60;;;27.10;35.90;;;;;;5116408;28;20550;-44
2021/10/23 12:31:53;;;;;;;3.00;1.43;;;26.50;36.90;;;;;;5115750;28;20414;-42
2021/10/23 12:34:18;;;;;;;2.80;1.47;;;26.00;37.60;;;;;;5116293;28;20522;-41
2021/10/23 12:36:58;;;;;;;5.30;1.60;;;25.60;38.10;;;;;;5116622;28;20456;-43
2021/10/23 12:39:29;;;;;;;2.03;1.60;;;25.30;38.50;;;;;;5116575;28;20696;-43
2021/10/23 12:41:56;;;;;;;1.90;1.20;;;25.00;39.20;;;;;;5099080;28;20487;-42
2021/10/23 12:44:23;;;;;;;2.40;1.27;;;24.80;39.30;;;;;;5117023;28;20463;-47
2021/10/23 12:46:51;;;;;;;2.50;1.33;;;24.60;39.50;;;;;;5115747;28;20424;-43
2021/10/23 12:49:17;;;;;;;3.77;1.53;;;24.50;39.60;;;;;;5116427;28;20451;-45
2021/10/23 12:51:42;;;;;;;2.87;1.13;;;24.30;39.80;;;;;;5081635;28;20426;-43
2021/10/23 12:54:09;;;;;;;1.70;1.10;;;24.30;40.40;;;;;;5108901;28;20472;-43
2021/10/23 12:56:35;;;;;;;3.07;1.37;;;24.20;40.40;;;;;;5106504;28;20758;-45
2021/10/23 12:59:00;;;;;;;2.87;1.40;;;24.20;40.30;;;;;;5104586;28;20568;-44
2021/10/23 13:01:26;;;;;;;4.00;1.90;;;24.10;40.40;;;;;;5107005;28;20419;-40
2021/10/23 13:03:53;;;;;;;4.60;1.50;;;24.20;40.50;;;;;;5104591;28;20246;-44